Time;durP1;ratioP1;P1;durP2;ratioP2;P2;SDS_P1;SDS_P2;PMS_P1;PMS_P2;Temp;Humidity;BMP_temperature;BMP_pressure;BME280_temperature;BME280_humidity;BME280_pressure;Samples;Min_cycle;Max_cycle;Signal;HPM_P1;HPM_P2
2022/03/15 00:01:24;;;;;;;25.75;10.57;;;;;;;8.65;28.47;100329.19;4486208;32;20111;-78
2022/03/15 00:03:50;;;;;;;24.30;10.60;;;;;;;8.66;28.50;100330.94;4486147;32;20484;-78
2022/03/15 00:06:16;;;;;;;23.40;11.10;;;;;;;8.63;28.57;100323.12;4473114;32;20122;-78
2022/03/15 00:08:43;;;;;;;23.90;11.35;;;;;;;8.60;28.66;100316.19;4486075;32;20088;-78
2022/03/15 00:11:09;;;;;;;25.85;10.60;;;;;;;8.61;28.69;100314.41;4486049;32;20084;-78
2022/03/15 00:13:38;;;;;;;22.23;10.05;;;;;;;8.54;28.89;100321.56;4486162;32;20120;-78
2022/03/15 00:16:05;;;;;;;20.65;9.90;;;;;;;8.56;28.90;100319.78;4486147;32;20120;-78
2022/03/15 00:18:31;;;;;;;20.77;10.10;;;;;;;8.56;28.92;100309.28;4472979;32;20114;-78
2022/03/15 00:20:58;;;;;;;20.00;9.63;;;;;;;8.55;28.89;100306.66;4487203;31;20116;-78
2022/03/15 00:23:24;;;;;;;21.30;9.50;;;;;;;8.60;28.89;100302.19;4486093;32;20108;-78
2022/03/15 00:25:50;;;;;;;20.58;9.00;;;;;;;8.49;28.93;100304.19;4486036;32;20095;-78
2022/03/15 00:28:16;;;;;;;18.73;8.82;;;;;;;8.54;28.75;100300.56;4485875;32;20111;-78
2022/03/15 00:30:42;;;;;;;23.52;11.10;;;;;;;8.58;28.34;100296.97;4486328;32;20103;-78
2022/03/15 00:33:08;;;;;;;23.73;11.25;;;;;;;8.46;28.82;100297.25;4486119;32;20475;-78
2022/03/15 00:35:33;;;;;;;24.25;11.12;;;;;;;8.43;29.12;100306.03;4487391;31;20104;-78
2022/03/15 00:37:59;;;;;;;24.73;10.55;;;;;;;8.45;29.22;100300.75;4487529;31;20080;-78
2022/03/15 00:40:25;;;;;;;20.05;10.10;;;;;;;8.37;29.35;100295.63;4485926;32;20080;-79
2022/03/15 00:42:52;;;;;;;23.30;10.70;;;;;;;8.35;29.55;100305.31;4487451;31;20439;-79
2022/03/15 00:45:19;;;;;;;23.42;10.95;;;;;;;8.28;29.77;100296.69;4486306;32;20092;-79
2022/03/15 00:47:45;;;;;;;21.55;10.43;;;;;;;8.20;30.01;100316.13;4486070;32;20158;-78
2022/03/15 00:50:11;;;;;;;23.30;11.00;;;;;;;8.19;30.10;100311.75;4485837;32;20111;-78
2022/03/15 00:52:37;;;;;;;27.45;11.90;;;;;;;8.16;30.21;100303.97;4485758;32;20096;-78
2022/03/15 00:55:05;;;;;;;23.12;11.32;;;;;;;8.07;30.35;100300.63;4486886;31;20124;-78
2022/03/15 00:57:31;;;;;;;23.62;11.45;;;;;;;8.10;30.65;100298.84;4486018;32;20111;-78
2022/03/15 00:59:57;;;;;;;28.30;10.00;;;;;;;7.93;31.18;100291.28;4487067;31;20594;-78
2022/03/15 01:02:23;;;;;;;22.37;10.40;;;;;;;7.93;31.42;100291.28;4485744;32;20494;-78
2022/03/15 01:04:48;;;;;;;22.05;10.40;;;;;;;8.05;31.72;100291.94;4485631;32;20124;-78
2022/03/15 01:07:14;;;;;;;23.08;11.75;;;;;;;7.98;31.92;100285.06;4486255;31;20084;-78
2022/03/15 01:09:40;;;;;;;24.00;11.23;;;;;;;7.94;31.82;100278.16;4485742;32;20102;-78
2022/03/15 01:12:06;;;;;;;22.20;11.32;;;;;;;7.92;31.91;100273.81;4485483;32;20104;-78
2022/03/15 01:14:32;;;;;;;24.23;12.10;;;;;;;7.48;32.93;100282.50;4486867;31;20456;-78
2022/03/15 01:16:58;;;;;;;27.37;12.40;;;;;;;7.47;33.09;100280.78;4472422;32;20087;-78
2022/03/15 01:19:23;;;;;;;23.77;11.85;;;;;;;7.51;33.18;100283.34;4486637;31;20413;-78
2022/03/15 01:21:50;;;;;;;26.85;12.43;;;;;;;7.53;33.02;100279.78;4485456;32;20135;-78
2022/03/15 01:24:16;;;;;;;22.80;11.57;;;;;;;7.59;32.98;100281.44;4486713;31;20460;-78
2022/03/15 01:26:42;;;;;;;23.35;10.98;;;;;;;7.63;32.96;100269.97;4485721;32;20083;-78
2022/03/15 01:29:07;;;;;;;25.88;11.50;;;;;;;7.64;32.98;100269.09;4486867;31;20076;-79
2022/03/15 01:31:34;;;;;;;27.62;12.45;;;;;;;7.68;33.07;100263.75;4485729;32;20138;-78
2022/03/15 01:33:59;;;;;;;24.27;11.38;;;;;;;7.70;33.23;100255.88;4485425;32;20112;-78
2022/03/15 01:36:25;;;;;;;20.30;11.05;;;;;;;7.69;33.35;100259.41;4486452;31;20111;-78
2022/03/15 01:38:53;;;;;;;24.25;11.57;;;;;;;7.72;33.24;100255.84;4486380;31;20408;-78
2022/03/15 01:41:21;;;;;;;27.20;12.27;;;;;;;7.67;33.17;100262.03;4486514;31;20155;-78
2022/03/15 01:43:47;;;;;;;25.17;11.50;;;;;;;7.66;33.00;100265.53;4486502;31;20127;-78
2022/03/15 01:46:13;;;;;;;21.70;10.45;;;;;;;7.72;33.04;100264.56;4486290;31;20096;-78
2022/03/15 01:48:39;;;;;;;22.20;11.18;;;;;;;7.60;33.33;100276.16;4485166;32;20094;-79
2022/03/15 01:51:05;;;;;;;24.80;11.20;;;;;;;7.59;33.35;100281.44;4485068;32;20177;-78
2022/03/15 01:53:32;;;;;;;23.55;10.95;;;;;;;7.58;33.43;100291.06;4486136;31;20108;-78
2022/03/15 01:55:59;;;;;;;22.55;10.65;;;;;;;7.58;33.36;100292.81;4486284;31;20083;-78
2022/03/15 01:58:25;;;;;;;24.77;11.27;;;;;;;7.61;33.34;100277.00;4471908;32;20118;-78
2022/03/15 02:00:51;;;;;;;26.05;12.35;;;;;;;7.51;33.43;100270.22;4486137;31;20110;-78
2022/03/15 02:03:16;;;;;;;24.92;11.50;;;;;;;7.52;33.47;100275.44;4486257;31;20092;-78
2022/03/15 02:05:42;;;;;;;23.85;11.45;;;;;;;7.08;33.50;100267.44;4484899;32;20164;-78
2022/03/15 02:08:14;;;;;;;27.37;11.68;;;;;;;7.19;32.91;100271.66;4484805;32;20186;-78
2022/03/15 02:10:40;;;;;;;23.95;11.85;;;;;;;7.27;32.70;100265.38;4484876;32;20120;-78
2022/03/15 02:13:07;;;;;;;26.85;11.45;;;;;;;7.36;32.64;100272.25;4484893;32;20112;-78
2022/03/15 02:15:33;;;;;;;26.25;11.63;;;;;;;7.37;32.86;100268.72;4484825;32;20470;-78
2022/03/15 02:17:59;;;;;;;24.15;11.38;;;;;;;7.37;32.99;100267.84;4484827;32;20127;-78
2022/03/15 02:20:25;;;;;;;22.73;11.43;;;;;;;7.34;33.15;100270.50;4486781;32;20127;-78
2022/03/15 02:22:50;;;;;;;24.83;11.43;;;;;;;7.38;33.17;100272.19;4488069;32;20168;-78
2022/03/15 02:25:16;;;;;;;26.55;11.60;;;;;;;7.40;33.36;100270.44;4487953;31;20084;-78
2022/03/15 02:27:41;;;;;;;25.50;11.60;;;;;;;7.40;33.62;100265.19;4488051;31;20088;-78
2022/03/15 02:30:07;;;;;;;23.83;11.63;;;;;;;7.40;33.80;100267.81;4487945;31;20123;-78
2022/03/15 02:32:34;;;;;;;25.30;11.00;;;;;;;7.28;33.97;100272.38;4486704;32;20096;-78
2022/03/15 02:34:59;;;;;;;29.17;11.70;;;;;;;7.14;33.35;100274.34;4473767;32;20088;-78
2022/03/15 02:37:25;;;;;;;25.12;11.32;;;;;;;7.16;32.81;100261.22;4473629;32;20080;-78
2022/03/15 02:39:51;;;;;;;22.15;10.95;;;;;;;7.28;32.72;100266.25;4486709;32;20104;-78
2022/03/15 02:42:16;;;;;;;25.23;11.82;;;;;;;7.20;32.75;100269.00;4486745;32;20459;-78
2022/03/15 02:44:42;;;;;;;24.30;11.95;;;;;;;7.19;32.79;100275.13;4486751;32;20388;-79
2022/03/15 02:47:07;;;;;;;25.00;11.93;;;;;;;7.23;32.87;100282.06;4486874;32;20087;-78
2022/03/15 02:49:33;;;;;;;24.65;11.35;;;;;;;7.24;33.08;100277.66;4486900;32;20096;-78
2022/03/15 02:51:58;;;;;;;23.70;11.57;;;;;;;7.26;33.35;100275.88;4488061;31;20076;-78
2022/03/15 02:54:24;;;;;;;24.48;11.35;;;;;;;7.25;33.50;100279.41;4486709;32;20151;-78
2022/03/15 02:56:50;;;;;;;24.35;11.70;;;;;;;7.25;33.63;100287.28;4486943;32;20102;-78
2022/03/15 02:59:16;;;;;;;25.70;11.50;;;;;;;7.25;33.74;100274.19;4487965;31;20152;-78
2022/03/15 03:01:45;;;;;;;25.05;11.98;;;;;;;7.25;33.79;100271.56;4486443;32;20357;-78
2022/03/15 03:04:10;;;;;;;22.87;10.88;;;;;;;7.22;33.79;100276.84;4487679;31;20164;-78
2022/03/15 03:06:37;;;;;;;22.50;11.57;;;;;;;7.20;33.81;100268.13;4487749;31;20088;-78
2022/03/15 03:09:03;;;;;;;26.73;11.68;;;;;;;7.21;33.58;100269.88;4487711;31;20188;-78
2022/03/15 03:11:29;;;;;;;21.77;10.23;;;;;;;7.17;33.31;100269.06;4486606;32;20101;-78
2022/03/15 03:13:57;;;;;;;23.67;10.90;;;;;;;7.17;32.71;100269.06;4487671;31;20470;-78
2022/03/15 03:16:23;;;;;;;21.58;11.30;;;;;;;7.16;32.18;100264.69;4487761;31;20451;-78
2022/03/15 03:18:48;;;;;;;22.98;10.68;;;;;;;7.21;31.82;100275.97;4487626;31;20097;-78
2022/03/15 03:21:14;;;;;;;23.92;10.43;;;;;;;7.19;31.98;100275.13;4486389;32;20109;-78
2022/03/15 03:23:39;;;;;;;23.23;11.27;;;;;;;7.20;32.03;100274.22;4487601;31;20092;-78
2022/03/15 03:26:06;;;;;;;23.55;10.75;;;;;;;7.15;32.21;100273.47;4487551;31;20428;-78
2022/03/15 03:28:38;;;;;;;22.08;11.05;;;;;;;7.17;32.22;100269.06;4486347;32;20131;-78
2022/03/15 03:31:09;;;;;;;23.62;10.88;;;;;;;7.08;32.56;100263.97;4473663;32;20237;-78
2022/03/15 03:33:35;;;;;;;22.52;10.77;;;;;;;7.12;32.55;100273.50;4486373;32;20114;-78
2022/03/15 03:36:01;;;;;;;24.70;11.15;;;;;;;7.02;32.80;100279.78;4487582;31;20407;-78
2022/03/15 03:38:27;;;;;;;21.23;11.30;;;;;;;6.98;32.56;100278.97;4486339;32;20108;-78
2022/03/15 03:40:53;;;;;;;27.30;11.70;;;;;;;6.91;32.82;100285.19;4487424;31;20104;-78
2022/03/15 03:43:18;;;;;;;24.80;11.60;;;;;;;6.97;32.74;100290.34;4487537;31;20080;-78
2022/03/15 03:45:44;;;;;;;22.98;11.12;;;;;;;6.97;32.85;100297.34;4487456;31;20107;-78
2022/03/15 03:48:09;;;;;;;24.20;11.90;;;;;;;6.96;33.03;100301.72;4486219;32;20499;-78
2022/03/15 03:50:35;;;;;;;27.15;11.77;;;;;;;6.97;33.14;100299.94;4487529;31;20096;-78
2022/03/15 03:53:03;;;;;;;25.23;11.60;;;;;;;6.98;33.21;100302.56;4486212;32;20566;-78
2022/03/15 03:55:28;;;;;;;24.37;11.38;;;;;;;6.95;33.29;100306.97;4486147;32;20079;-78
2022/03/15 03:57:54;;;;;;;27.42;12.20;;;;;;;6.97;33.15;100305.19;4486046;32;20520;-78
2022/03/15 04:00:19;;;;;;;20.95;10.52;;;;;;;6.94;33.13;100303.50;4487305;31;20076;-78
2022/03/15 04:02:45;;;;;;;25.77;11.98;;;;;;;6.94;33.11;100298.25;4486135;32;20113;-78
2022/03/15 04:05:10;;;;;;;25.10;11.12;;;;;;;6.91;33.17;100300.91;4487181;32;20417;-78
2022/03/15 04:07:37;;;;;;;22.60;10.75;;;;;;;6.93;33.17;100298.28;4487391;31;20080;-78
2022/03/15 04:10:06;;;;;;;23.42;10.90;;;;;;;6.94;33.12;100295.63;4487376;31;20083;-78
2022/03/15 04:12:32;;;;;;;27.67;11.65;;;;;;;6.91;33.22;100292.19;4486166;32;20167;-78
2022/03/15 04:14:58;;;;;;;29.02;11.98;;;;;;;6.87;33.55;100294.00;4486176;32;20253;-78
2022/03/15 04:17:24;;;;;;;22.27;10.75;;;;;;;6.87;33.75;100286.12;4472813;32;20189;-78
2022/03/15 04:19:50;;;;;;;25.17;11.20;;;;;;;6.86;33.91;100281.81;4487235;31;20088;-78
2022/03/15 04:22:15;;;;;;;24.73;10.98;;;;;;;6.77;34.17;100285.41;4472861;32;20084;-78
2022/03/15 04:24:41;;;;;;;28.15;11.98;;;;;;;6.76;34.28;100288.94;4487171;31;20072;-78
2022/03/15 04:27:06;;;;;;;23.98;11.00;;;;;;;6.72;34.42;100291.59;4487076;31;20091;-78
2022/03/15 04:29:32;;;;;;;29.17;11.85;;;;;;;6.67;34.51;100296.91;4487105;31;20085;-78
2022/03/15 04:31:57;;;;;;;25.73;12.00;;;;;;;6.60;34.69;100295.25;4487124;31;20116;-78
2022/03/15 04:34:22;;;;;;;25.73;12.57;;;;;;;6.59;34.76;100302.25;4487235;31;20088;-78
2022/03/15 04:36:48;;;;;;;27.20;12.93;;;;;;;6.57;34.79;100298.81;4487115;31;20132;-78
2022/03/15 04:39:13;;;;;;;25.27;12.00;;;;;;;6.57;34.82;100300.56;4487090;31;20141;-78
2022/03/15 04:41:39;;;;;;;24.10;11.73;;;;;;;6.60;34.73;100311.84;4484925;32;20123;-78
2022/03/15 04:44:06;;;;;;;25.20;11.57;;;;;;;6.40;34.61;100306.88;4485729;32;20137;-78
2022/03/15 04:46:32;;;;;;;30.00;12.15;;;;;;;6.40;34.38;100312.09;4487067;31;20104;-78
2022/03/15 04:48:57;;;;;;;24.73;11.35;;;;;;;6.45;33.80;100315.53;4485881;32;20159;-78
2022/03/15 04:51:24;;;;;;;23.80;10.93;;;;;;;6.49;33.70;100311.13;4487021;31;20115;-78
2022/03/15 04:53:49;;;;;;;22.02;10.82;;;;;;;6.53;33.78;100319.78;4485671;32;20088;-78
2022/03/15 04:56:15;;;;;;;23.27;10.23;;;;;;;6.55;33.84;100323.25;4485779;32;20104;-78
2022/03/15 04:58:40;;;;;;;20.70;9.73;;;;;;;6.56;33.89;100323.25;4485805;32;20123;-78
2022/03/15 05:01:06;;;;;;;22.65;10.88;;;;;;;6.56;33.91;100319.75;4485618;32;20111;-78
2022/03/15 05:03:33;;;;;;;21.65;10.80;;;;;;;6.58;33.90;100324.06;4486921;31;20123;-78
2022/03/15 05:05:59;;;;;;;22.90;11.57;;;;;;;6.59;33.98;100322.34;4487008;31;20089;-78
2022/03/15 05:08:24;;;;;;;26.05;11.77;;;;;;;6.64;34.05;100317.91;4485645;32;20198;-78
2022/03/15 05:11:08;;;;;;;23.15;11.60;;;;;;;6.63;34.11;100327.50;4485687;32;20084;-78
2022/03/15 05:13:42;;;;;;;24.75;11.30;;;;;;;6.65;34.15;100330.97;4486820;31;20073;-78
2022/03/15 05:16:12;;;;;;;25.17;11.40;;;;;;;6.68;34.04;100328.31;4486876;31;20093;-78
2022/03/15 05:18:39;;;;;;;23.02;10.95;;;;;;;6.73;33.93;100328.25;4472590;32;20183;-78
2022/03/15 05:21:04;;;;;;;25.50;10.77;;;;;;;6.79;33.87;100328.16;4472388;32;20110;-78
2022/03/15 05:23:30;;;;;;;22.25;10.43;;;;;;;6.82;33.84;100330.75;4485332;32;20085;-78
2022/03/15 05:25:56;;;;;;;24.73;11.75;;;;;;;6.85;33.63;100329.81;4486701;31;20100;-78
2022/03/15 05:28:21;;;;;;;22.98;10.52;;;;;;;6.98;33.46;100326.13;4486731;31;20466;-78
2022/03/15 05:30:47;;;;;;;21.15;10.30;;;;;;;7.12;33.20;100319.81;4472182;32;20380;-78
2022/03/15 05:33:12;;;;;;;22.60;10.60;;;;;;;7.31;32.77;100315.16;4486572;31;20092;-78
2022/03/15 05:35:38;;;;;;;22.77;10.52;;;;;;;7.38;32.33;100309.78;4486568;31;20474;-78
2022/03/15 05:38:04;;;;;;;20.20;9.82;;;;;;;7.49;32.04;100314.81;4485343;32;20134;-78
2022/03/15 05:40:29;;;;;;;21.23;10.40;;;;;;;7.58;31.68;100311.19;4485291;32;20115;-78
2022/03/15 05:42:55;;;;;;;20.67;10.02;;;;;;;7.75;31.56;100308.25;4486440;31;20082;-78
2022/03/15 05:45:20;;;;;;;21.92;10.32;;;;;;;7.93;31.33;100314.91;4486372;31;20359;-78
2022/03/15 05:47:46;;;;;;;25.45;11.70;;;;;;;8.01;31.67;100313.00;4486539;32;20451;-78
2022/03/15 05:50:11;;;;;;;25.67;11.12;;;;;;;8.16;31.67;100309.22;4486223;31;20103;-78
2022/03/15 05:52:37;;;;;;;22.92;10.20;;;;;;;8.34;31.31;100302.72;4486794;31;20345;-78
2022/03/15 05:55:02;;;;;;;20.00;9.88;;;;;;;8.46;31.43;100305.97;4486747;32;20096;-78
2022/03/15 05:57:27;;;;;;;24.20;10.80;;;;;;;8.55;31.38;100298.78;4487064;32;20372;-78
2022/03/15 05:59:53;;;;;;;23.30;10.70;;;;;;;8.66;30.98;100294.16;4486952;32;20110;-78
2022/03/15 06:02:18;;;;;;;22.17;10.68;;;;;;;8.78;30.95;100298.28;4488161;31;20077;-78
2022/03/15 06:04:44;;;;;;;23.20;11.95;;;;;;;8.90;30.52;100305.00;4488102;32;20485;-78
2022/03/15 06:07:10;;;;;;;22.25;11.80;;;;;;;8.97;29.95;100301.34;4488240;31;20494;-78
2022/03/15 06:09:35;;;;;;;24.23;11.75;;;;;;;9.05;29.76;100302.00;4488130;31;20432;-78
2022/03/15 06:12:03;;;;;;;28.67;12.63;;;;;;;9.01;29.49;100301.22;4488290;31;20096;-78
2022/03/15 06:14:29;;;;;;;22.33;12.05;;;;;;;9.03;29.46;100298.56;4488129;31;20104;-78
2022/03/15 06:16:54;;;;;;;29.17;12.90;;;;;;;9.15;29.72;100297.41;4487044;32;20095;-78
2022/03/15 06:19:20;;;;;;;24.15;12.18;;;;;;;9.28;29.35;100292.72;4487997;31;20443;-78
2022/03/15 06:21:45;;;;;;;22.98;11.25;;;;;;;9.22;29.46;100291.94;4488075;31;20416;-78
2022/03/15 06:24:11;;;;;;;24.30;12.15;;;;;;;9.36;29.90;100303.91;4488088;31;20089;-78
2022/03/15 06:26:38;;;;;;;24.23;11.52;;;;;;;9.28;29.54;100309.34;4488079;32;20165;-78
2022/03/15 06:29:03;;;;;;;25.98;11.88;;;;;;;9.39;29.42;100311.72;4486769;32;20514;-78
2022/03/15 06:31:30;;;;;;;24.90;13.43;;;;;;;9.50;29.16;100304.38;4486820;32;20085;-78
2022/03/15 06:33:56;;;;;;;27.48;13.95;;;;;;;9.47;29.48;100309.75;4488065;31;20084;-78
2022/03/15 06:36:21;;;;;;;26.42;13.88;;;;;;;9.44;29.62;100310.69;4486788;32;20120;-78
2022/03/15 06:38:47;;;;;;;30.00;13.90;;;;;;;9.50;29.43;100309.66;4487854;31;20463;-78
2022/03/15 06:41:12;;;;;;;28.98;15.38;;;;;;;9.52;29.43;100310.50;4486674;32;20399;-78
2022/03/15 06:43:39;;;;;;;33.58;17.08;;;;;;;9.71;28.78;100307.38;4486625;32;20135;-78
2022/03/15 06:46:05;;;;;;;28.00;14.77;;;;;;;9.67;28.84;100311.00;4486690;32;20155;-78
2022/03/15 06:48:31;;;;;;;27.85;14.15;;;;;;;9.82;27.38;100310.59;4487843;31;20118;-78
2022/03/15 06:50:56;;;;;;;29.02;14.23;;;;;;;9.62;27.46;100309.34;4486699;32;20084;-78
2022/03/15 06:53:22;;;;;;;27.00;13.77;;;;;;;9.58;27.73;100314.72;4487712;31;20088;-78
2022/03/15 06:55:47;;;;;;;26.58;13.45;;;;;;;9.73;27.86;100302.94;4486607;32;20135;-78
2022/03/15 06:58:14;;;;;;;25.58;13.07;;;;;;;9.82;27.62;100300.91;4486604;32;20132;-78
2022/03/15 07:00:40;;;;;;;24.60;11.88;;;;;;;9.81;27.46;100293.94;4487687;31;20123;-78
2022/03/15 07:03:05;;;;;;;24.42;12.43;;;;;;;9.87;27.53;100290.28;4487773;31;20120;-78
2022/03/15 07:05:31;;;;;;;24.83;12.80;;;;;;;9.92;27.64;100285.72;4485963;32;20375;-78
2022/03/15 07:07:56;;;;;;;24.15;13.40;;;;;;;9.94;27.64;100277.78;4487716;32;20145;-78
2022/03/15 07:10:22;;;;;;;25.70;13.25;;;;;;;9.99;27.40;100282.03;4486463;32;20528;-78
2022/03/15 07:12:47;;;;;;;24.87;13.20;;;;;;;10.07;27.21;100288.84;4487575;32;20196;-78
2022/03/15 07:15:14;;;;;;;25.25;12.63;;;;;;;10.18;26.97;100276.25;4487732;31;20096;-78
2022/03/15 07:17:51;;;;;;;23.55;12.23;;;;;;;10.18;27.40;100281.53;4473349;32;20149;-78
2022/03/15 07:20:18;;;;;;;26.35;12.63;;;;;;;10.20;27.41;100275.28;4486471;32;20080;-78
2022/03/15 07:22:44;;;;;;;27.50;13.20;;;;;;;10.30;27.31;100278.53;4486495;32;20100;-78
2022/03/15 07:25:09;;;;;;;26.65;13.18;;;;;;;10.30;27.56;100277.66;4486442;32;20118;-78
2022/03/15 07:27:35;;;;;;;26.08;13.50;;;;;;;10.33;27.33;100272.31;4487931;31;20080;-78
2022/03/15 07:30:00;;;;;;;27.75;13.98;;;;;;;10.35;27.36;100274.00;4487773;31;20446;-78
2022/03/15 07:32:26;;;;;;;28.12;14.73;;;;;;;10.21;27.67;100281.41;4486529;32;20096;-78
2022/03/15 07:34:51;;;;;;;30.30;14.65;;;;;;;10.24;28.02;100286.59;4487848;32;20084;-78
2022/03/15 07:37:17;;;;;;;27.37;13.60;;;;;;;10.22;28.14;100286.62;4487742;32;20113;-78
2022/03/15 07:39:43;;;;;;;29.17;14.60;;;;;;;10.35;27.88;100284.56;4487529;31;20106;-78
2022/03/15 07:42:08;;;;;;;26.30;13.65;;;;;;;10.48;27.70;100281.53;4487691;32;20157;-78
2022/03/15 07:44:34;;;;;;;25.83;13.68;;;;;;;10.53;27.15;100284.91;4473393;32;20486;-78
2022/03/15 07:46:59;;;;;;;29.10;14.00;;;;;;;10.48;27.05;100294.72;4473172;32;20088;-78
2022/03/15 07:49:25;;;;;;;23.27;13.88;;;;;;;10.52;27.07;100288.44;4487386;31;20088;-78
2022/03/15 07:51:50;;;;;;;29.67;14.77;;;;;;;10.67;26.94;100293.25;4486151;32;20456;-78
2022/03/15 07:54:16;;;;;;;28.35;14.98;;;;;;;10.64;27.14;100295.97;4487251;31;20148;-78
2022/03/15 07:56:42;;;;;;;30.88;15.98;;;;;;;10.70;27.19;100293.16;4487340;31;20136;-78
2022/03/15 07:59:07;;;;;;;28.73;15.52;;;;;;;10.69;27.47;100291.41;4486168;32;20395;-78
2022/03/15 08:01:34;;;;;;;28.75;15.40;;;;;;;10.71;27.24;100289.59;4472936;32;20137;-78
2022/03/15 08:04:00;;;;;;;29.77;15.80;;;;;;;10.75;27.03;100288.59;4487405;31;20104;-78
2022/03/15 08:06:25;;;;;;;27.77;15.38;;;;;;;10.84;26.96;100283.97;4486174;32;20118;-78
2022/03/15 08:08:56;;;;;;;29.75;16.58;;;;;;;10.80;27.16;100293.72;4485944;32;20119;-78
2022/03/15 08:11:25;;;;;;;30.95;15.05;;;;;;;10.94;27.02;100290.66;4486119;32;20104;-78
2022/03/15 08:13:53;;;;;;;32.50;16.77;;;;;;;10.92;27.26;100289.84;4486146;32;20130;-78
2022/03/15 08:16:18;;;;;;;;;;;;;;;11.09;27.10;100289.31;4472050;32;20116;-78
2022/03/15 08:18:44;;;;;;;27.37;15.80;;;;;;;11.25;27.38;100284.37;4486019;32;19971;-78
2022/03/15 08:21:10;;;;;;;30.17;16.08;;;;;;;11.20;26.98;100288.03;4487085;31;20115;-78
2022/03/15 08:23:35;;;;;;;31.70;15.93;;;;;;;11.23;26.77;100288.84;4487212;31;20080;-78
2022/03/15 08:26:01;;;;;;;27.65;15.75;;;;;;;11.39;26.66;100290.03;4487158;31;20110;-78
2022/03/15 08:28:26;;;;;;;29.35;16.00;;;;;;;11.52;26.99;100286.06;4487215;31;20132;-79
2022/03/15 08:30:54;;;;;;;27.90;16.12;;;;;;;11.53;26.38;100279.91;4487284;31;20115;-78
2022/03/15 08:33:20;;;;;;;28.23;14.95;;;;;;;11.58;26.60;100282.34;4472790;32;20104;-79
2022/03/15 08:35:46;;;;;;;28.98;16.20;;;;;;;11.78;26.50;100281.66;4485988;32;20088;-78
2022/03/15 08:38:12;;;;;;;27.27;14.82;;;;;;;11.93;25.86;100275.84;4487094;31;20079;-78
2022/03/15 08:40:37;;;;;;;27.02;15.15;;;;;;;11.99;25.91;100272.13;4487091;31;20444;-79
2022/03/15 08:43:04;;;;;;;29.40;15.60;;;;;;;12.08;25.75;100263.03;4487171;31;20459;-79
2022/03/15 08:45:29;;;;;;;29.50;16.75;;;;;;;12.14;25.80;100263.63;4486988;31;20110;-78
2022/03/15 08:47:55;;;;;;;29.33;16.15;;;;;;;12.20;25.71;100263.41;4485909;32;20080;-79
2022/03/15 08:50:20;;;;;;;29.27;16.33;;;;;;;12.03;25.60;100260.53;4486916;31;20428;-79
2022/03/15 08:52:47;;;;;;;28.15;15.27;;;;;;;12.12;25.71;100257.56;4485919;32;20097;-79
2022/03/15 08:55:13;;;;;;;27.15;15.15;;;;;;;12.41;25.11;100254.75;4485605;32;20102;-79
2022/03/15 08:57:39;;;;;;;25.75;14.23;;;;;;;12.38;24.80;100251.28;4472500;32;20076;-78
2022/03/15 09:00:06;;;;;;;24.65;13.50;;;;;;;12.31;24.55;100247.16;4486883;31;20110;-78
2022/03/15 09:02:31;;;;;;;27.52;14.10;;;;;;;12.43;24.39;100250.25;4485730;32;20160;-78
2022/03/15 09:04:57;;;;;;;26.35;14.20;;;;;;;12.44;24.56;100247.56;4486941;31;20092;-78
2022/03/15 09:07:22;;;;;;;23.95;13.00;;;;;;;12.59;24.24;100243.44;4486761;31;20081;-78
2022/03/15 09:09:47;;;;;;;25.05;13.88;;;;;;;12.65;23.46;100243.22;4486755;31;20154;-78
2022/03/15 09:12:13;;;;;;;24.27;13.38;;;;;;;12.70;23.62;100233.28;4485737;32;20487;-78
2022/03/15 09:14:38;;;;;;;27.95;13.07;;;;;;;12.62;23.31;100232.75;4486879;31;20337;-78
2022/03/15 09:17:05;;;;;;;25.35;14.05;;;;;;;12.75;23.31;100231.31;4485577;32;20387;-78
2022/03/15 09:19:32;;;;;;;29.87;13.38;;;;;;;12.87;23.25;100221.19;4486727;31;20251;-78
2022/03/15 09:21:57;;;;;;;26.08;14.68;;;;;;;13.04;22.90;100226.63;4485466;32;20131;-78
2022/03/15 09:24:22;;;;;;;27.00;14.02;;;;;;;13.01;22.73;100218.81;4486643;31;20080;-80
2022/03/15 09:26:48;;;;;;;23.75;14.45;;;;;;;12.88;23.38;100213.16;4486293;31;20088;-80
2022/03/15 09:29:14;;;;;;;26.90;13.68;;;;;;;13.02;23.18;100214.38;4486201;31;20227;-80
2022/03/15 09:31:39;;;;;;;24.67;13.00;;;;;;;13.06;23.68;100218.62;4485424;32;20096;-80
2022/03/15 09:34:06;;;;;;;26.15;14.48;;;;;;;13.30;23.57;100208.81;4485479;32;20084;-80
2022/03/15 09:36:32;;;;;;;28.05;14.07;;;;;;;13.31;23.51;100198.16;4485308;32;20156;-80
2022/03/15 09:38:57;;;;;;;23.87;12.93;;;;;;;13.33;23.70;100206.06;4486466;31;20104;-80
2022/03/15 09:41:26;;;;;;;27.25;12.88;;;;;;;13.56;23.13;100203.25;4486400;32;20088;-80
2022/03/15 09:43:54;;;;;;;22.45;12.85;;;;;;;13.57;22.63;100202.31;4486516;31;20127;-79
2022/03/15 09:46:21;;;;;;;25.70;12.82;;;;;;;13.83;22.60;100199.41;4485171;32;20113;-80
2022/03/15 09:48:51;;;;;;;22.45;12.05;;;;;;;13.72;22.37;100195.47;4486373;31;20100;-80
2022/03/15 09:51:17;;;;;;;22.83;12.15;;;;;;;13.90;22.39;100196.41;4486546;31;20118;-80
2022/03/15 09:53:44;;;;;;;21.15;12.48;;;;;;;13.93;22.43;100193.66;4486104;31;20167;-81
2022/03/15 09:56:10;;;;;;;24.05;12.40;;;;;;;14.04;22.60;100190.50;4486261;32;20099;-81
2022/03/15 09:58:36;;;;;;;23.67;12.65;;;;;;;14.10;22.81;100194.62;4471918;32;20127;-79
2022/03/15 10:01:01;;;;;;;24.37;12.25;;;;;;;14.17;22.64;100190.78;4486085;31;20104;-79
2022/03/15 10:03:29;;;;;;;22.20;12.57;;;;;;;14.48;21.89;100186.66;4486130;31;20072;-79
2022/03/15 10:05:55;;;;;;;21.30;11.43;;;;;;;14.51;22.46;100178.56;4472082;32;20099;-79
2022/03/15 10:08:20;;;;;;;22.60;11.00;;;;;;;14.67;21.93;100171.59;4484837;32;20109;-79
2022/03/15 10:10:51;;;;;;;21.80;11.82;;;;;;;14.70;22.23;100170.62;4484814;32;20472;-79
2022/03/15 10:13:20;;;;;;;19.73;10.85;;;;;;;14.72;22.15;100169.59;4484962;32;20167;-79
2022/03/15 10:15:53;;;;;;;22.45;10.70;;;;;;;14.91;22.04;100164.22;4484791;32;20107;-79
2022/03/15 10:18:20;;;;;;;20.58;10.15;;;;;;;15.02;22.14;100168.12;4486304;31;20157;-79
2022/03/15 10:20:46;;;;;;;19.55;10.23;;;;;;;15.07;21.92;100172.25;4486127;31;20084;-79
2022/03/15 10:23:12;;;;;;;17.83;9.80;;;;;;;15.26;21.99;100172.19;4471439;32;20084;-79
2022/03/15 10:25:42;;;;;;;23.40;11.00;;;;;;;15.36;22.02;100167.25;4484704;32;20102;-79
2022/03/15 10:28:08;;;;;;;19.67;10.23;;;;;;;15.38;21.91;100164.53;4487403;31;20119;-76
2022/03/15 10:30:35;;;;;;;21.25;10.98;;;;;;;15.60;21.74;100153.59;4486605;31;20209;-78
2022/03/15 10:33:01;;;;;;;19.98;9.45;;;;;;;15.67;21.33;100155.00;4501558;31;20087;-78
2022/03/15 10:35:29;;;;;;;18.73;9.57;;;;;;;15.61;21.89;100153.53;4487071;31;20140;-78
2022/03/15 10:37:56;;;;;;;20.60;9.75;;;;;;;15.60;21.56;100145.63;4487245;31;20126;-78
2022/03/15 10:40:43;;;;;;;23.27;10.65;;;;;;;15.75;21.39;100139.53;4502746;31;20114;-79
2022/03/15 10:43:13;;;;;;;18.92;9.48;;;;;;;15.86;21.18;100133.62;4503919;31;20084;-78
2022/03/15 10:45:51;;;;;;;19.62;9.30;;;;;;;15.77;21.27;100132.34;4503669;31;20140;-79
2022/03/15 10:48:21;;;;;;;17.50;8.90;;;;;;;15.78;21.42;100138.50;4489662;31;20531;-79
2022/03/15 10:50:55;;;;;;;21.75;9.27;;;;;;;15.83;21.37;100123.16;4503655;31;20443;-79
2022/03/15 10:53:28;;;;;;;17.85;9.50;;;;;;;15.83;21.17;100118.69;4503642;31;20096;-79
2022/03/15 10:56:32;;;;;;;26.90;8.93;;;;;;;15.92;21.46;100106.72;4503545;31;20109;-80
2022/03/15 10:59:01;;;;;;;22.50;9.05;;;;;;;16.15;21.30;100097.47;4503622;31;20080;-79
2022/03/15 11:01:29;;;;;;;18.87;9.02;;;;;;;15.96;21.04;100096.78;4489234;31;20501;-80
2022/03/15 11:04:06;;;;;;;16.37;8.68;;;;;;;16.15;21.38;100088.59;4499289;31;20490;-80
2022/03/15 11:06:31;;;;;;;18.45;9.57;;;;;;;16.16;21.08;100082.34;4486626;32;20084;-79
2022/03/15 11:08:58;;;;;;;19.10;9.55;;;;;;;16.35;21.07;100076.84;4487735;31;20141;-80
2022/03/15 11:11:27;;;;;;;17.48;8.35;;;;;;;16.48;20.84;100069.88;4487812;31;20160;-80